Time;durP1;ratioP1;P1;durP2;ratioP2;P2;SDS_P1;SDS_P2;PMS_P1;PMS_P2;Temp;Humidity;BMP_temperature;BMP_pressure;BME280_temperature;BME280_humidity;BME280_pressure;Samples;Min_cycle;Max_cycle;Signal;HPM_P1;HPM_P2
2023/04/01 00:01:00;;;;;;;1.85;1.35;;;14.70;47.00;;;;;;5014716;28;20350;-53
2023/04/01 00:03:27;;;;;;;6.82;1.70;;;14.70;47.00;;;;;;5014383;28;20706;-53
2023/04/01 00:05:57;;;;;;;3.15;1.33;;;14.70;46.90;;;;;;5013495;28;20269;-53
2023/04/01 00:08:24;;;;;;;2.70;1.58;;;14.70;46.70;;;;;;5014527;28;20508;-52
2023/04/01 00:10:50;;;;;;;2.90;1.95;;;14.80;46.70;;;;;;5014093;28;20212;-52
2023/04/01 00:13:17;;;;;;;3.42;2.10;;;14.80;46.50;;;;;;5013913;28;20221;-51
2023/04/01 00:15:43;;;;;;;3.58;2.20;;;14.80;46.60;;;;;;5014349;28;20181;-54
2023/04/01 00:18:09;;;;;;;2.70;1.35;;;14.80;46.80;;;;;;5014138;28;20181;-52
2023/04/01 00:20:35;;;;;;;4.13;2.40;;;14.70;46.60;;;;;;5014050;28;20554;-53
2023/04/01 00:23:01;;;;;;;77.10;45.43;;;14.80;46.50;;;;;;5014154;28;20508;-53
2023/04/01 00:25:26;;;;;;;11.32;6.82;;;14.70;46.60;;;;;;5014185;28;20487;-52
2023/04/01 00:27:52;;;;;;;22.73;14.23;;;14.60;46.90;;;;;;5014285;28;20198;-53
2023/04/01 00:30:18;;;;;;;6.30;4.93;;;14.60;47.00;;;;;;5013862;28;20718;-53
2023/04/01 00:32:44;;;;;;;4.17;3.57;;;14.60;47.10;;;;;;5013817;28;20658;-53
2023/04/01 00:35:10;;;;;;;2.53;1.88;;;14.60;46.80;;;;;;5014017;28;20467;-53
2023/04/01 00:37:37;;;;;;;2.15;1.48;;;14.60;46.90;;;;;;5013706;28;20661;-52
2023/04/01 00:40:24;;;;;;;2.85;2.60;;;14.70;46.70;;;;;;5013654;28;20194;-52
2023/04/01 00:42:50;;;;;;;4.30;1.85;;;14.60;46.90;;;;;;5013516;28;20531;-53
2023/04/01 00:45:27;;;;;;;2.50;1.90;;;14.60;47.00;;;;;;5013724;28;20170;-53
2023/04/01 00:47:54;;;;;;;7.18;2.72;;;14.70;47.30;;;;;;5013645;28;20650;-53
2023/04/01 00:50:23;;;;;;;3.20;1.90;;;14.50;47.50;;;;;;5013362;28;20206;-52
2023/04/01 00:52:49;;;;;;;3.15;1.50;;;14.60;47.60;;;;;;5013315;28;20237;-53
2023/04/01 00:55:18;;;;;;;2.63;2.30;;;14.50;47.60;;;;;;5013526;28;20283;-52
2023/04/01 00:57:46;;;;;;;5.00;1.75;;;14.50;47.70;;;;;;5013526;28;20221;-53
2023/04/01 01:00:14;;;;;;;4.03;1.60;;;14.40;48.00;;;;;;5013354;28;20639;-53
2023/04/01 01:02:44;;;;;;;3.75;2.08;;;14.40;47.90;;;;;;5013176;28;20181;-54
2023/04/01 01:05:15;;;;;;;4.43;1.50;;;14.50;47.80;;;;;;5013404;28;20286;-53
2023/04/01 01:07:56;;;;;;;2.00;1.45;;;14.50;47.80;;;;;;5013593;28;20657;-53
2023/04/01 01:10:36;;;;;;;2.60;1.80;;;14.50;47.70;;;;;;5013354;28;20623;-53
2023/04/01 01:13:10;;;;;;;2.80;1.25;;;14.50;47.60;;;;;;5013293;28;20154;-51
2023/04/01 01:15:45;;;;;;;2.65;1.42;;;14.50;47.50;;;;;;5013547;28;20193;-53
2023/04/01 01:18:31;;;;;;;4.60;2.88;;;14.50;47.30;;;;;;5013102;28;20256;-53
2023/04/01 01:21:27;;;;;;;2.50;1.60;;;14.50;47.50;;;;;;5013234;28;20198;-53
2023/04/01 01:24:22;;;;;;;2.40;1.65;;;14.60;47.00;;;;;;5012766;28;20262;-53
2023/04/01 01:26:53;;;;;;;5.53;2.85;;;14.60;46.80;;;;;;4982453;28;20185;-53
2023/04/01 01:29:42;;;;;;;3.08;1.10;;;14.60;46.60;;;;;;5012900;28;20187;-55
2023/04/01 01:32:25;;;;;;;2.25;1.50;;;14.60;46.30;;;;;;5012570;28;20666;-53
2023/04/01 01:35:27;;;;;;;4.38;1.60;;;14.60;46.60;;;;;;5012751;28;20554;-52
2023/04/01 01:38:02;;;;;;;2.35;2.15;;;14.50;46.80;;;;;;5013075;28;20256;-52
2023/04/01 01:40:30;;;;;;;4.85;1.27;;;14.30;47.20;;;;;;5012594;28;20695;-53
2023/04/01 01:43:01;;;;;;;2.50;1.20;;;14.40;47.20;;;;;;5012522;28;20179;-54
2023/04/01 01:45:28;;;;;;;3.67;1.65;;;14.40;47.00;;;;;;5012816;28;20170;-52
2023/04/01 01:47:55;;;;;;;2.45;1.02;;;14.40;47.10;;;;;;5012717;28;20614;-51
2023/04/01 01:50:22;;;;;;;1.58;0.85;;;14.40;47.10;;;;;;5012689;28;20195;-53
2023/04/01 01:52:48;;;;;;;4.22;1.25;;;14.40;46.90;;;;;;5012297;28;20183;-53
2023/04/01 01:55:29;;;;;;;3.10;1.77;;;14.50;46.90;;;;;;5012518;28;20205;-53
2023/04/01 01:57:59;;;;;;;3.63;1.15;;;14.50;46.80;;;;;;5012718;28;20183;-51
2023/04/01 02:00:26;;;;;;;2.63;1.55;;;14.40;46.80;;;;;;5012387;28;20205;-52
2023/04/01 02:02:52;;;;;;;3.60;1.48;;;14.40;46.70;;;;;;5012235;28;20167;-53
2023/04/01 02:05:25;;;;;;;4.13;1.02;;;14.50;46.90;;;;;;5012317;28;20535;-53
2023/04/01 02:08:21;;;;;;;1.85;1.25;;;14.50;46.60;;;;;;5012434;28;20504;-52
2023/04/01 02:11:00;;;;;;;2.97;1.20;;;14.60;46.30;;;;;;5012162;28;20248;-53
2023/04/01 02:13:35;;;;;;;3.05;2.20;;;14.70;46.10;;;;;;5012048;28;20248;-53
2023/04/01 02:16:07;;;;;;;2.17;1.27;;;14.70;46.00;;;;;;5012530;28;20224;-52
2023/04/01 02:18:37;;;;;;;3.75;1.60;;;14.60;45.80;;;;;;5012376;28;20155;-54
2023/04/01 02:21:04;;;;;;;4.25;1.65;;;14.70;46.00;;;;;;5012402;28;20202;-53
2023/04/01 02:23:33;;;;;;;2.25;2.00;;;14.70;45.80;;;;;;5012089;28;20178;-53
2023/04/01 02:26:00;;;;;;;3.30;3.03;;;14.80;45.60;;;;;;5012236;28;20776;-54
2023/04/01 02:28:28;;;;;;;3.45;1.92;;;14.80;45.40;;;;;;5012350;28;20232;-53
2023/04/01 02:31:22;;;;;;;3.83;3.42;;;14.80;45.40;;;;;;5015365;28;20609;-52
2023/04/01 02:33:48;;;;;;;3.58;1.90;;;14.80;45.30;;;;;;5016079;28;20277;-52
2023/04/01 02:36:15;;;;;;;3.67;2.15;;;14.70;45.40;;;;;;5016359;28;20182;-52
2023/04/01 02:38:44;;;;;;;4.60;3.55;;;14.70;45.30;;;;;;5029868;22;20244;-51
2023/04/01 02:41:10;;;;;;;2.03;1.23;;;14.70;45.40;;;;;;5047340;28;20172;-52
2023/04/01 02:43:36;;;;;;;6.20;1.90;;;14.70;45.40;;;;;;5055244;28;20200;-52
2023/04/01 02:46:02;;;;;;;6.40;1.60;;;14.60;45.40;;;;;;5055673;28;20204;-52
2023/04/01 02:48:28;;;;;;;4.33;2.33;;;14.60;45.40;;;;;;5055524;28;20982;-51
2023/04/01 02:50:54;;;;;;;3.15;1.50;;;14.60;45.30;;;;;;5055442;28;20191;-52
2023/04/01 02:53:20;;;;;;;7.13;5.30;;;14.60;45.40;;;;;;5055206;28;20628;-50
2023/04/01 02:55:46;;;;;;;2.80;1.87;;;14.60;45.40;;;;;;5055510;28;20169;-51
2023/04/01 02:58:11;;;;;;;4.38;3.97;;;14.60;45.30;;;;;;5055355;28;20978;-51
2023/04/01 03:00:38;;;;;;;5.10;3.73;;;14.60;45.40;;;;;;5055410;28;20252;-51
2023/04/01 03:03:03;;;;;;;4.78;4.13;;;14.60;45.50;;;;;;5055073;28;20169;-51
2023/04/01 03:05:29;;;;;;;6.00;4.67;;;14.50;45.50;;;;;;5055305;28;20184;-51
2023/04/01 03:07:55;;;;;;;3.70;3.17;;;14.50;45.40;;;;;;5055333;28;20231;-50
2023/04/01 03:10:21;;;;;;;6.20;3.00;;;14.60;45.40;;;;;;5055042;28;20607;-51
2023/04/01 03:12:47;;;;;;;3.37;3.07;;;14.50;45.40;;;;;;5055216;28;20408;-51
2023/04/01 03:15:14;;;;;;;5.83;4.40;;;14.50;45.40;;;;;;5054868;28;20205;-51
2023/04/01 03:17:41;;;;;;;4.45;1.80;;;14.50;45.40;;;;;;5055291;28;20173;-51
2023/04/01 03:20:08;;;;;;;6.75;4.50;;;14.50;45.40;;;;;;5054818;28;20201;-51
2023/04/01 03:22:35;;;;;;;4.22;3.88;;;14.50;45.40;;;;;;5055000;28;20581;-51
2023/04/01 03:25:05;;;;;;;4.85;1.60;;;14.60;45.20;;;;;;5055083;28;20213;-51
2023/04/01 03:27:30;;;;;;;6.43;4.07;;;14.60;45.00;;;;;;5055137;28;20204;-51
2023/04/01 03:29:56;;;;;;;16.90;13.23;;;14.70;44.80;;;;;;5054808;28;20185;-51
2023/04/01 03:32:22;;;;;;;5.17;2.70;;;14.70;44.80;;;;;;5054445;28;20540;-51
2023/04/01 03:34:47;;;;;;;5.70;3.90;;;14.70;44.80;;;;;;5054879;28;20668;-52
2023/04/01 03:37:14;;;;;;;7.07;6.13;;;14.70;44.80;;;;;;5054786;28;20272;-51
2023/04/01 03:39:40;;;;;;;8.52;7.22;;;14.80;44.40;;;;;;5054626;28;20209;-50
2023/04/01 03:42:06;;;;;;;5.53;3.10;;;14.80;44.50;;;;;;5054155;28;20214;-51
2023/04/01 03:44:33;;;;;;;3.70;3.30;;;14.80;44.40;;;;;;5054616;28;20666;-51
2023/04/01 03:46:59;;;;;;;6.05;2.55;;;14.80;44.30;;;;;;5054417;28;20210;-51
2023/04/01 03:49:25;;;;;;;10.50;3.93;;;14.80;44.10;;;;;;5054620;28;20220;-51
2023/04/01 03:51:50;;;;;;;6.80;3.47;;;14.80;44.30;;;;;;5054372;28;20408;-51
2023/04/01 03:54:16;;;;;;;5.83;4.93;;;14.80;44.20;;;;;;5054388;28;20439;-51
2023/04/01 03:56:42;;;;;;;6.25;2.95;;;14.80;44.00;;;;;;5054452;28;20173;-51
2023/04/01 03:59:08;;;;;;;4.03;1.50;;;14.90;44.20;;;;;;5054456;28;20190;-50
2023/04/01 04:01:35;;;;;;;3.83;1.80;;;14.90;44.10;;;;;;5054090;28;20818;-51
2023/04/01 04:04:01;;;;;;;4.57;2.30;;;15.00;44.00;;;;;;5054021;28;20200;-51
2023/04/01 04:06:27;;;;;;;5.20;1.80;;;15.00;43.80;;;;;;5054226;28;20169;-52
2023/04/01 04:08:53;;;;;;;5.20;3.72;;;15.00;43.80;;;;;;5054149;28;20435;-51
2023/04/01 04:11:20;;;;;;;5.63;1.83;;;14.90;43.60;;;;;;5054121;28;20177;-51
2023/04/01 04:13:49;;;;;;;5.20;1.30;;;15.00;43.70;;;;;;5053739;28;20247;-51
2023/04/01 04:16:16;;;;;;;4.43;1.50;;;15.00;43.70;;;;;;5053888;28;20173;-51
2023/04/01 04:18:42;;;;;;;5.97;2.50;;;15.00;43.70;;;;;;5054087;28;20603;-50
2023/04/01 04:21:12;;;;;;;7.97;2.03;;;15.00;43.60;;;;;;5054111;28;20181;-50
2023/04/01 04:23:38;;;;;;;4.22;2.17;;;15.10;43.70;;;;;;5053641;28;20176;-51
2023/04/01 04:26:06;;;;;;;2.63;1.77;;;15.00;43.40;;;;;;5053840;28;20181;-52
2023/04/01 04:28:32;;;;;;;5.82;3.00;;;15.10;43.60;;;;;;5053575;28;20200;-51
2023/04/01 04:30:58;;;;;;;4.20;2.30;;;15.00;43.30;;;;;;5053939;28;20182;-51
2023/04/01 04:33:25;;;;;;;5.13;2.70;;;15.00;43.30;;;;;;5053370;28;20176;-51
2023/04/01 04:35:51;;;;;;;2.10;1.88;;;15.00;43.30;;;;;;5053663;28;20408;-54
2023/04/01 04:38:17;;;;;;;4.53;1.90;;;15.00;43.30;;;;;;5053486;28;20799;-50
2023/04/01 04:40:43;;;;;;;4.00;2.17;;;15.00;43.10;;;;;;5053565;28;20223;-50
2023/04/01 04:43:13;;;;;;;5.07;3.30;;;15.10;43.10;;;;;;5053455;28;20478;-51
2023/04/01 04:45:40;;;;;;;4.85;2.38;;;15.00;43.00;;;;;;5053388;28;20794;-50
2023/04/01 04:48:08;;;;;;;2.35;1.55;;;15.10;43.00;;;;;;5053441;28;20181;-51
2023/04/01 04:50:34;;;;;;;3.60;1.90;;;15.10;43.10;;;;;;5053289;28;20169;-51
2023/04/01 04:53:00;;;;;;;3.97;1.50;;;15.00;42.80;;;;;;5052753;28;20192;-51
2023/04/01 04:55:26;;;;;;;1.60;1.10;;;15.00;42.80;;;;;;5053169;28;20197;-52
2023/04/01 04:57:51;;;;;;;3.83;1.30;;;15.00;42.60;;;;;;5053155;28;20211;-50
2023/04/01 05:00:17;;;;;;;2.77;1.50;;;15.00;43.00;;;;;;5052995;28;20415;-53
2023/04/01 05:02:43;;;;;;;4.75;1.58;;;14.90;43.00;;;;;;5052913;28;20244;-50
2023/04/01 05:05:10;;;;;;;2.97;1.60;;;14.90;42.80;;;;;;5053188;28;20248;-53
2023/04/01 05:07:36;;;;;;;3.15;1.65;;;14.90;42.80;;;;;;5052901;28;20185;-51
2023/04/01 05:10:02;;;;;;;7.50;1.52;;;14.90;43.00;;;;;;5052903;28;20193;-51
2023/04/01 05:12:28;;;;;;;2.72;1.50;;;14.90;43.00;;;;;;5052649;28;20766;-51
2023/04/01 05:14:54;;;;;;;2.60;1.37;;;14.90;43.70;;;;;;5052697;28;20216;-53
2023/04/01 05:17:20;;;;;;;3.97;2.38;;;14.90;43.10;;;;;;5053105;28;20178;-51
2023/04/01 05:19:45;;;;;;;3.00;1.07;;;14.90;43.10;;;;;;5052718;28;20208;-53
2023/04/01 05:22:11;;;;;;;5.43;1.53;;;14.90;43.00;;;;;;5052584;28;20403;-52
2023/04/01 05:24:37;;;;;;;3.10;1.80;;;14.90;43.10;;;;;;5052688;28;20659;-51
2023/04/01 05:27:02;;;;;;;2.63;1.13;;;14.80;43.00;;;;;;5052581;28;20246;-53
2023/04/01 05:29:28;;;;;;;4.80;1.97;;;14.70;43.30;;;;;;5052705;28;20272;-51
2023/04/01 05:31:54;;;;;;;3.33;1.13;;;14.70;43.50;;;;;;5052297;28;20235;-53
2023/04/01 05:34:19;;;;;;;1.53;0.97;;;14.70;43.80;;;;;;5052737;28;20201;-53
2023/04/01 05:36:45;;;;;;;4.40;1.47;;;14.70;43.50;;;;;;5052476;28;20537;-52
2023/04/01 05:39:11;;;;;;;4.20;2.17;;;14.60;43.70;;;;;;5052256;28;20680;-52
2023/04/01 05:41:38;;;;;;;3.30;2.20;;;14.70;43.90;;;;;;5052461;28;20169;-53
2023/04/01 05:44:04;;;;;;;4.25;2.72;;;14.80;44.00;;;;;;5051151;28;20811;-50
2023/04/01 05:46:30;;;;;;;3.50;1.42;;;14.80;43.70;;;;;;5052293;28;20706;-51
2023/04/01 05:48:56;;;;;;;2.67;1.05;;;14.80;43.70;;;;;;5052235;28;20197;-54
2023/04/01 05:51:22;;;;;;;3.25;1.80;;;14.80;43.40;;;;;;5052191;28;20173;-51
2023/04/01 05:53:48;;;;;;;8.10;1.73;;;14.70;43.90;;;;;;5052201;28;20246;-53
2023/04/01 05:56:14;;;;;;;5.30;1.50;;;14.70;44.10;;;;;;5052015;28;20181;-50
2023/04/01 05:58:40;;;;;;;3.05;1.23;;;14.60;44.10;;;;;;5052196;28;20199;-53
2023/04/01 06:01:08;;;;;;;1.93;1.10;;;14.70;44.30;;;;;;5052135;28;20534;-52
2023/04/01 06:03:34;;;;;;;4.70;1.55;;;14.70;44.10;;;;;;5051380;28;20170;-53
2023/04/01 06:06:01;;;;;;;3.63;1.67;;;14.70;44.10;;;;;;5051552;28;20169;-51
2023/04/01 06:08:27;;;;;;;3.35;1.60;;;14.80;44.20;;;;;;5052222;28;20190;-53
2023/04/01 06:11:13;;;;;;;2.72;1.52;;;14.90;44.10;;;;;;5051882;28;20173;-52
2023/04/01 06:13:47;;;;;;;1.42;0.90;;;14.90;44.00;;;;;;5051750;28;20173;-52
2023/04/01 06:16:41;;;;;;;1.92;1.48;;;14.90;44.10;;;;;;5052031;28;20417;-49
2023/04/01 06:19:28;;;;;;;7.63;1.75;;;14.90;43.80;;;;;;5051731;28;20204;-53
2023/04/01 06:22:14;;;;;;;5.13;1.40;;;15.00;44.00;;;;;;5051705;28;20162;-52
2023/04/01 06:25:14;;;;;;;2.75;1.27;;;14.90;43.60;;;;;;5051931;28;20200;-53
2023/04/01 06:27:51;;;;;;;3.45;1.80;;;15.00;43.70;;;;;;5052071;28;20520;-53
2023/04/01 06:30:35;;;;;;;3.65;1.70;;;15.10;43.80;;;;;;5051743;28;20197;-51
2023/04/01 06:33:54;;;;;;;2.20;1.45;;;15.20;43.40;;;;;;5051575;28;20169;-52
2023/04/01 06:37:02;;;;;;;4.50;1.20;;;15.20;43.00;;;;;;4970716;28;20194;-53
2023/04/01 06:39:49;;;;;;;6.10;1.48;;;15.30;43.00;;;;;;5020491;28;20219;-50
2023/04/01 06:42:53;;;;;;;4.32;1.50;;;15.20;43.00;;;;;;5051834;28;20510;-53
2023/04/01 06:45:34;;;;;;;2.45;1.55;;;15.30;42.60;;;;;;5014163;28;20259;-51
2023/04/01 06:48:00;;;;;;;2.45;1.10;;;15.30;42.40;;;;;;5051624;28;20185;-51
2023/04/01 06:50:41;;;;;;;3.83;1.50;;;15.30;42.50;;;;;;5051433;28;20224;-53
2023/04/01 06:53:19;;;;;;;3.58;1.40;;;15.40;41.80;;;;;;5051652;28;20177;-52
2023/04/01 06:55:49;;;;;;;6.07;1.60;;;15.40;42.00;;;;;;5051482;28;20426;-51
2023/04/01 06:58:22;;;;;;;3.92;1.25;;;15.40;42.00;;;;;;5051454;28;20313;-53
2023/04/01 07:00:54;;;;;;;2.03;1.13;;;15.50;42.10;;;;;;5051420;28;20296;-50
2023/04/01 07:03:29;;;;;;;6.68;1.60;;;15.60;42.00;;;;;;5051165;28;20180;-53
2023/04/01 07:06:01;;;;;;;3.60;1.50;;;15.60;41.90;;;;;;5051446;28;20164;-51
2023/04/01 07:08:29;;;;;;;3.55;1.33;;;15.60;41.10;;;;;;5051355;28;20187;-51
2023/04/01 07:11:08;;;;;;;5.03;1.30;;;15.60;40.60;;;;;;5051360;28;20243;-54
2023/04/01 07:13:36;;;;;;;3.58;1.15;;;15.60;41.50;;;;;;5051359;28;20168;-50
2023/04/01 07:16:24;;;;;;;2.80;1.30;;;15.60;41.20;;;;;;5052987;28;20644;-51
2023/04/01 07:18:56;;;;;;;4.10;1.20;;;15.60;41.50;;;;;;5055217;28;20200;-54
2023/04/01 07:21:41;;;;;;;3.42;1.10;;;15.70;41.20;;;;;;5055060;28;20173;-51
2023/04/01 07:24:26;;;;;;;4.63;1.17;;;15.60;40.60;;;;;;5055163;28;20260;-54
2023/04/01 07:26:57;;;;;;;5.55;1.80;;;15.40;40.80;;;;;;5054870;28;20169;-50
2023/04/01 07:29:23;;;;;;;4.93;1.17;;;15.30;41.40;;;;;;5054782;28;20228;-52
2023/04/01 07:32:15;;;;;;;3.20;1.77;;;15.40;41.90;;;;;;5054519;28;20170;-55
2023/04/01 07:35:14;;;;;;;2.72;1.05;;;15.40;41.40;;;;;;5054735;28;20208;-52
2023/04/01 07:37:59;;;;;;;1.92;1.25;;;15.50;41.10;;;;;;4985477;28;20181;-53
2023/04/01 07:40:49;;;;;;;2.00;1.05;;;15.50;41.00;;;;;;5054456;28;20201;-53
2023/04/01 07:43:29;;;;;;;2.47;1.10;;;15.40;41.10;;;;;;5054685;28;20171;-51
2023/04/01 07:46:18;;;;;;;4.07;1.48;;;15.50;40.70;;;;;;5054643;28;20167;-51
2023/04/01 07:48:58;;;;;;;5.20;1.80;;;15.70;41.40;;;;;;5043840;28;20676;-51
2023/04/01 07:52:02;;;;;;;2.35;1.40;;;15.80;40.80;;;;;;5054427;28;20181;-54
2023/04/01 07:54:42;;;;;;;3.80;1.30;;;15.90;40.40;;;;;;5054070;28;20819;-51
2023/04/01 07:57:19;;;;;;;2.90;1.10;;;15.90;39.50;;;;;;5054272;28;20502;-54
2023/04/01 07:59:44;;;;;;;4.50;1.80;;;15.70;40.20;;;;;;5054233;28;20212;-51
2023/04/01 08:02:22;;;;;;;4.97;1.40;;;15.70;40.60;;;;;;5054084;28;20236;-53
2023/04/01 08:05:06;;;;;;;2.60;1.45;;;15.90;41.00;;;;;;5054206;28;20607;-51
2023/04/01 08:08:06;;;;;;;4.82;1.40;;;16.10;40.60;;;;;;5053986;28;20200;-52
2023/04/01 08:11:23;;;;;;;4.63;1.50;;;16.20;39.90;;;;;;5053915;28;20533;-54
2023/04/01 08:13:55;;;;;;;3.58;1.58;;;16.10;39.30;;;;;;5009247;28;20209;-54
2023/04/01 08:16:40;;;;;;;6.75;1.58;;;16.10;40.30;;;;;;5054078;28;20185;-52
2023/04/01 08:19:24;;;;;;;1.83;1.23;;;16.20;40.00;;;;;;5053842;28;20279;-51
2023/04/01 08:21:52;;;;;;;2.30;1.10;;;16.10;39.70;;;;;;5053553;28;20223;-53
2023/04/01 08:24:27;;;;;;;3.28;1.40;;;16.00;39.70;;;;;;5053833;28;20204;-51
2023/04/01 08:26:59;;;;;;;4.60;1.58;;;16.10;39.90;;;;;;5053161;28;20509;-51
2023/04/01 08:29:53;;;;;;;3.40;1.40;;;16.20;40.10;;;;;;5053720;28;20205;-54
2023/04/01 08:32:37;;;;;;;1.52;1.05;;;16.30;39.50;;;;;;5053584;28;20180;-51
2023/04/01 08:35:33;;;;;;;2.10;0.95;;;16.30;39.50;;;;;;5053607;28;20204;-52
2023/04/01 08:38:05;;;;;;;3.38;1.65;;;16.40;39.30;;;;;;5053549;28;20150;-51
2023/04/01 08:40:54;;;;;;;3.70;1.40;;;16.20;38.90;;;;;;5065789;22;20211;-48
2023/04/01 08:43:35;;;;;;;3.80;1.77;;;16.30;39.50;;;;;;5001269;28;20237;-51
2023/04/01 08:46:50;;;;;;;6.45;1.58;;;16.20;38.90;;;;;;5013739;28;20197;-48
2023/04/01 08:49:48;;;;;;;2.10;1.13;;;16.10;39.40;;;;;;4968167;28;20190;-52
2023/04/01 08:52:37;;;;;;;2.35;1.33;;;16.00;39.40;;;;;;5013284;28;20665;-52
2023/04/01 08:55:48;;;;;;;3.85;1.10;;;16.00;39.50;;;;;;5013431;28;20206;-49
2023/04/01 08:58:50;;;;;;;2.45;1.00;;;16.00;39.20;;;;;;4969712;28;20202;-52
2023/04/01 09:01:22;;;;;;;3.05;1.20;;;16.00;39.40;;;;;;5013253;28;20189;-49
2023/04/01 09:04:18;;;;;;;3.70;1.50;;;15.90;39.40;;;;;;5013430;28;20534;-51
2023/04/01 09:07:11;;;;;;;2.70;1.08;;;15.90;40.30;;;;;;5013251;28;20696;-52
2023/04/01 09:09:46;;;;;;;6.63;1.55;;;16.10;39.60;;;;;;5013257;28;20178;-49
2023/04/01 09:12:45;;;;;;;2.40;1.30;;;16.20;40.10;;;;;;5013131;28;20213;-51
2023/04/01 09:15:49;;;;;;;4.28;1.40;;;16.10;38.80;;;;;;5013143;28;20561;-49
2023/04/01 09:18:23;;;;;;;4.65;3.00;;;16.10;39.00;;;;;;5012972;28;20213;-51
2023/04/01 09:20:49;;;;;;;16.73;10.57;;;16.00;39.20;;;;;;5013039;28;20187;-51
2023/04/01 09:23:43;;;;;;;5.80;4.10;;;16.00;39.70;;;;;;5012767;28;20225;-49
2023/04/01 09:26:25;;;;;;;3.65;1.60;;;16.10;39.40;;;;;;5013012;28;20249;-52
2023/04/01 09:28:57;;;;;;;1.60;0.93;;;16.20;39.80;;;;;;5012980;28;20581;-49
2023/04/01 09:31:45;;;;;;;1.95;1.10;;;16.10;38.90;;;;;;5012790;28;20199;-52
2023/04/01 09:34:35;;;;;;;1.60;1.00;;;16.10;39.00;;;;;;5012816;28;20209;-49
2023/04/01 09:37:29;;;;;;;3.72;1.75;;;16.10;39.70;;;;;;5012737;28;20589;-49
2023/04/01 09:40:04;;;;;;;2.75;0.95;;;16.20;39.70;;;;;;4976848;28;20248;-52
2023/04/01 09:42:42;;;;;;;2.10;1.63;;;16.30;39.50;;;;;;5012292;28;20220;-52
2023/04/01 09:45:28;;;;;;;4.82;1.65;;;16.50;39.50;;;;;;5012608;28;20645;-49
2023/04/01 09:48:02;;;;;;;3.22;1.40;;;16.60;39.00;;;;;;5012694;28;20200;-52
2023/04/01 09:50:38;;;;;;;2.85;1.00;;;16.60;37.80;;;;;;5012544;28;20170;-49
2023/04/01 09:53:15;;;;;;;2.53;0.90;;;16.60;38.00;;;;;;5012358;28;20174;-51
2023/04/01 09:56:20;;;;;;;1.98;1.10;;;16.50;38.30;;;;;;5012468;28;20198;-51
2023/04/01 09:59:15;;;;;;;1.73;1.15;;;16.60;39.20;;;;;;5012596;28;20178;-52
2023/04/01 10:02:14;;;;;;;1.77;1.08;;;16.80;37.50;;;;;;5012151;28;20213;-51
2023/04/01 10:04:54;;;;;;;2.35;0.95;;;16.80;38.10;;;;;;5012419;28;20175;-52
2023/04/01 10:07:35;;;;;;;2.67;1.02;;;16.80;37.80;;;;;;5012450;28;20175;-52
2023/04/01 10:10:19;;;;;;;3.10;1.48;;;16.80;37.60;;;;;;5012145;28;20163;-51
2023/04/01 10:12:48;;;;;;;5.32;1.83;;;16.80;38.30;;;;;;5011873;28;20186;-49
2023/04/01 10:15:41;;;;;;;2.88;1.25;;;16.80;37.80;;;;;;5012080;28;20199;-52
2023/04/01 10:18:25;;;;;;;3.17;1.35;;;16.90;38.30;;;;;;5012329;28;20182;-49
2023/04/01 10:21:21;;;;;;;2.15;1.00;;;16.80;38.00;;;;;;5012141;28;20227;-51
2023/04/01 10:23:57;;;;;;;1.50;1.02;;;16.90;37.90;;;;;;5012014;28;20193;-49
2023/04/01 10:26:44;;;;;;;1.85;1.15;;;16.70;37.80;;;;;;5012197;28;20239;-51
2023/04/01 10:29:10;;;;;;;2.20;1.17;;;16.80;38.10;;;;;;5012445;28;20182;-51
2023/04/01 10:32:00;;;;;;;5.87;1.93;;;16.60;38.10;;;;;;5012172;28;20202;-51
2023/04/01 10:34:31;;;;;;;2.58;1.40;;;16.80;38.50;;;;;;5012211;28;20197;-50
2023/04/01 10:37:01;;;;;;;4.22;1.50;;;16.90;38.50;;;;;;5012072;28;20693;-51
2023/04/01 10:39:54;;;;;;;1.65;1.10;;;16.90;38.50;;;;;;5012054;28;20500;-51
2023/04/01 10:42:34;;;;;;;3.10;1.17;;;17.00;38.50;;;;;;5011609;28;20673;-52
2023/04/01 10:45:36;;;;;;;2.78;1.30;;;17.00;37.90;;;;;;5012020;28;20174;-52
2023/04/01 10:48:32;;;;;;;2.45;1.30;;;16.90;38.30;;;;;;5012024;28;20625;-51
2023/04/01 10:51:19;;;;;;;2.70;1.20;;;16.90;38.30;;;;;;5013420;28;20236;-50
2023/04/01 10:54:02;;;;;;;1.75;1.20;;;16.90;38.10;;;;;;5015427;28;20193;-51
2023/04/01 10:56:38;;;;;;;4.25;1.33;;;16.80;38.10;;;;;;5015753;28;20209;-51
2023/04/01 10:59:36;;;;;;;3.30;1.33;;;16.90;38.20;;;;;;5015682;28;20202;-52
2023/04/01 11:02:37;;;;;;;2.60;1.80;;;16.90;38.10;;;;;;4944898;28;20285;-51
2023/04/01 11:05:22;;;;;;;2.90;1.67;;;16.90;38.30;;;;;;4998231;28;20191;-51
2023/04/01 11:08:14;;;;;;;2.72;2.25;;;17.00;38.20;;;;;;5015466;28;20182;-52
2023/04/01 11:11:17;;;;;;;6.05;2.10;;;17.20;38.40;;;;;;5015332;28;20719;-52
2023/04/01 11:14:09;;;;;;;6.20;1.75;;;17.20;38.50;;;;;;5015162;28;20174;-51
2023/04/01 11:17:01;;;;;;;2.30;1.25;;;17.30;38.80;;;;;;5015403;28;20285;-51
2023/04/01 11:20:11;;;;;;;3.55;1.30;;;17.10;38.90;;;;;;5015382;28;20197;-51
2023/04/01 11:22:51;;;;;;;2.90;1.50;;;17.20;39.60;;;;;;5010966;28;20748;-51
2023/04/01 11:25:27;;;;;;;3.40;1.85;;;17.40;40.20;;;;;;5015041;28;20178;-50
2023/04/01 11:28:11;;;;;;;2.40;1.60;;;17.60;41.40;;;;;;5015306;28;20317;-50
2023/04/01 11:30:39;;;;;;;6.10;1.67;;;17.80;41.70;;;;;;5014944;28;20587;-51
2023/04/01 11:33:18;;;;;;;3.17;1.42;;;18.00;41.10;;;;;;5014911;28;20178;-52
2023/04/01 11:36:00;;;;;;;2.45;1.70;;;18.10;41.00;;;;;;5014971;28;20198;-52
2023/04/01 11:39:09;;;;;;;3.50;1.75;;;18.30;40.30;;;;;;5014947;28;20162;-52
2023/04/01 11:41:48;;;;;;;2.05;1.60;;;18.40;40.20;;;;;;4984365;28;20221;-51
2023/04/01 11:44:20;;;;;;;2.88;2.17;;;18.40;40.10;;;;;;5015211;28;20267;-52
2023/04/01 11:46:56;;;;;;;2.45;1.80;;;18.30;38.80;;;;;;5014789;28;20179;-52
2023/04/01 11:49:40;;;;;;;3.08;1.63;;;18.20;37.70;;;;;;5014925;28;20182;-51
2023/04/01 11:52:34;;;;;;;3.03;2.78;;;17.90;38.60;;;;;;5014177;28;20201;-52
2023/04/01 11:55:35;;;;;;;1.95;1.10;;;17.70;40.20;;;;;;5014672;28;20214;-51
2023/04/01 11:58:29;;;;;;;1.55;0.90;;;17.70;41.20;;;;;;5014680;28;20198;-52
2023/04/01 12:01:31;;;;;;;3.10;1.20;;;17.70;41.50;;;;;;5014806;28;20206;-51
2023/04/01 12:04:40;;;;;;;2.35;1.52;;;17.80;42.50;;;;;;5010731;28;20273;-51
2023/04/01 12:07:21;;;;;;;1.63;1.33;;;18.00;42.20;;;;;;5014682;28;20543;-51
2023/04/01 12:10:17;;;;;;;2.10;1.17;;;18.00;41.30;;;;;;5014555;28;20174;-51
2023/04/01 12:13:12;;;;;;;2.95;1.40;;;18.10;41.10;;;;;;5014152;28;20213;-51
2023/04/01 12:15:41;;;;;;;2.63;1.38;;;18.20;41.20;;;;;;5012033;28;20211;-51
2023/04/01 12:18:55;;;;;;;1.60;1.00;;;18.20;40.80;;;;;;5014298;28;20674;-51
2023/04/01 12:21:54;;;;;;;2.65;1.35;;;18.30;40.10;;;;;;4996683;28;20277;-51
2023/04/01 12:24:20;;;;;;;2.20;0.73;;;18.40;40.30;;;;;;4981377;28;20241;-51
2023/04/01 12:27:07;;;;;;;1.67;1.13;;;18.50;39.30;;;;;;5014167;28;20557;-51
2023/04/01 12:29:38;;;;;;;2.28;1.80;;;18.60;39.00;;;;;;5014006;28;20175;-51
2023/04/01 12:32:30;;;;;;;2.80;1.95;;;18.60;38.90;;;;;;5013872;28;20281;-51
2023/04/01 12:35:21;;;;;;;5.00;3.17;;;18.60;38.70;;;;;;5013797;28;20209;-52
2023/04/01 12:38:13;;;;;;;2.88;2.40;;;18.70;39.10;;;;;;5013895;28;20214;-51
2023/04/01 12:41:02;;;;;;;2.20;1.80;;;18.70;39.20;;;;;;5013646;28;20213;-51
2023/04/01 12:44:01;;;;;;;2.15;1.38;;;18.80;38.90;;;;;;5013642;28;20162;-52
2023/04/01 12:46:57;;;;;;;1.98;1.30;;;18.80;38.40;;;;;;5013727;28;20167;-51
2023/04/01 12:49:36;;;;;;;4.07;1.60;;;18.80;39.20;;;;;;5013659;28;20186;-51
2023/04/01 12:52:10;;;;;;;3.63;1.33;;;18.90;39.30;;;;;;5013314;28;20205;-51
2023/04/01 12:54:41;;;;;;;3.05;1.20;;;19.00;38.90;;;;;;5013396;28;20665;-52
2023/04/01 12:57:33;;;;;;;1.20;0.93;;;19.10;38.60;;;;;;5013665;28;20183;-52
2023/04/01 13:00:27;;;;;;;1.48;0.98;;;19.30;38.10;;;;;;4983218;28;20645;-52
2023/04/01 13:03:30;;;;;;;3.13;1.77;;;19.40;37.70;;;;;;5013160;28;20175;-50
2023/04/01 13:06:17;;;;;;;2.67;1.40;;;19.50;37.60;;;;;;5013237;28;20547;-52
2023/04/01 13:09:18;;;;;;;4.15;1.35;;;19.60;37.80;;;;;;5013390;28;20175;-52
2023/04/01 13:11:56;;;;;;;2.17;1.05;;;19.60;37.50;;;;;;4997304;28;20207;-52
2023/04/01 13:14:46;;;;;;;2.80;0.95;;;19.50;36.30;;;;;;5012637;28;20201;-51
2023/04/01 13:17:36;;;;;;;1.50;1.00;;;19.50;36.40;;;;;;5013287;28;20538;-51
2023/04/01 13:20:19;;;;;;;1.80;1.67;;;19.50;36.70;;;;;;5013162;28;20166;-51
2023/04/01 13:23:06;;;;;;;1.92;1.67;;;19.50;37.00;;;;;;5012947;28;20159;-51
2023/04/01 13:26:12;;;;;;;2.72;1.33;;;19.40;36.40;;;;;;5013038;28;20174;-51
2023/04/01 13:28:51;;;;;;;3.60;2.42;;;19.20;35.40;;;;;;5012989;28;20171;-51
2023/04/01 13:31:48;;;;;;;3.15;1.38;;;18.80;34.70;;;;;;5012758;28;20198;-51
2023/04/01 13:34:29;;;;;;;1.80;1.60;;;18.40;36.00;;;;;;5012925;28;20214;-50
2023/04/01 13:37:19;;;;;;;1.92;1.65;;;18.20;37.50;;;;;;5013095;28;20166;-50
2023/04/01 13:40:03;;;;;;;1.40;0.80;;;18.10;38.50;;;;;;5013169;28;20191;-50